createdAt,value
2018-01-15T00:02:27.846Z,88.10
2018-01-15T00:04:55.356Z,88.00
2018-01-15T00:07:22.885Z,88.40
2018-01-15T00:09:50.449Z,88.40
2018-01-15T00:12:17.982Z,88.00
2018-01-15T00:14:46.028Z,87.90
2018-01-15T00:17:13.564Z,87.80
2018-01-15T00:19:41.488Z,87.90
2018-01-15T00:22:09.828Z,87.60
2018-01-15T00:24:37.938Z,87.70
2018-01-15T00:27:05.479Z,87.60
2018-01-15T00:29:33.761Z,87.60
2018-01-15T00:32:03.232Z,87.50
2018-01-15T00:34:30.773Z,87.40
2018-01-15T00:36:58.436Z,87.30
2018-01-15T00:39:25.954Z,87.20
2018-01-15T00:41:53.612Z,86.90
2018-01-15T00:44:22.180Z,87.00
2018-01-15T00:46:49.734Z,86.90
2018-01-15T00:49:17.264Z,87.50
2018-01-15T00:51:44.814Z,87.00
2018-01-15T00:54:12.603Z,87.10
2018-01-15T00:56:40.165Z,87.00
2018-01-15T00:59:07.774Z,86.90
2018-01-15T01:01:35.516Z,86.90
2018-01-15T01:04:04.052Z,87.20
2018-01-15T01:06:31.597Z,87.10
2018-01-15T01:09:00.250Z,87.40
2018-01-15T01:11:28.468Z,87.30
2018-01-15T01:13:56.905Z,87.50
2018-01-15T01:16:24.431Z,87.30
2018-01-15T01:18:52.787Z,87.60
2018-01-15T01:21:21.661Z,87.70
2018-01-15T01:23:49.263Z,87.70
2018-01-15T01:26:16.806Z,87.70
2018-01-15T01:28:44.349Z,87.60
2018-01-15T01:31:12.076Z,87.70
2018-01-15T01:33:40.418Z,87.50
2018-01-15T01:36:08.696Z,87.40
2018-01-15T01:38:36.228Z,87.40
2018-01-15T01:41:03.751Z,87.40
2018-01-15T01:43:31.544Z,87.30
2018-01-15T01:45:59.812Z,87.40
2018-01-15T01:48:27.344Z,87.40
2018-01-15T01:50:54.876Z,87.20
2018-01-15T01:53:23.264Z,87.80
2018-01-15T01:55:50.856Z,87.10
2018-01-15T01:58:19.249Z,87.50
2018-01-15T02:00:46.963Z,87.50
2018-01-15T02:03:15.355Z,87.90
2018-01-15T02:05:43.005Z,87.70
2018-01-15T02:08:10.657Z,88.10
2018-01-15T02:10:39.019Z,88.20
2018-01-15T02:13:07.406Z,88.00
2018-01-15T02:15:35.766Z,88.10
2018-01-15T02:18:03.391Z,88.10
2018-01-15T02:20:31.748Z,88.10
2018-01-15T02:22:59.362Z,88.10
2018-01-15T02:25:26.984Z,88.10
2018-01-15T02:27:55.364Z,88.20
2018-01-15T02:30:22.967Z,88.10
2018-01-15T02:32:51.850Z,88.10
2018-01-15T02:35:19.478Z,88.10
2018-01-15T02:37:47.158Z,88.10
2018-01-15T02:40:16.844Z,88.90
2018-01-15T02:42:44.467Z,88.10
2018-01-15T02:45:12.101Z,88.10
2018-01-15T02:47:39.747Z,88.10
2018-01-15T02:50:07.408Z,88.10
2018-01-15T02:52:35.040Z,88.10
2018-01-15T02:55:02.724Z,88.20
2018-01-15T02:57:31.121Z,88.20
2018-01-15T02:59:58.760Z,88.00
2018-01-15T03:02:26.445Z,88.00
2018-01-15T03:04:54.098Z,88.10
2018-01-15T03:07:22.664Z,88.10
2018-01-15T03:09:51.566Z,88.10
2018-01-15T03:12:19.232Z,88.10
2018-01-15T03:14:47.002Z,88.10
2018-01-15T03:17:14.882Z,88.00
2018-01-15T03:19:43.313Z,88.10
2018-01-15T03:22:11.637Z,88.00
2018-01-15T03:24:39.270Z,88.10
2018-01-15T03:27:06.811Z,88.30
2018-01-15T03:29:35.191Z,89.40
2018-01-15T03:32:02.761Z,88.80
2018-01-15T03:34:30.963Z,89.20
2018-01-15T03:36:58.674Z,89.20
2018-01-15T03:39:26.619Z,89.40
2018-01-15T03:41:54.634Z,89.40
2018-01-15T03:44:22.287Z,89.00
2018-01-15T03:46:50.918Z,88.50
2018-01-15T03:49:18.635Z,88.50
2018-01-15T03:51:47.054Z,88.60
2018-01-15T03:54:15.963Z,88.00
2018-01-15T03:56:44.142Z,88.00
2018-01-15T03:59:12.358Z,87.60
2018-01-15T04:01:42.790Z,86.90
2018-01-15T04:04:11.265Z,86.70
2018-01-15T04:06:38.990Z,86.70
2018-01-15T04:09:07.343Z,86.30
2018-01-15T04:11:34.967Z,86.30
2018-01-15T04:14:02.487Z,86.10
2018-01-15T04:16:30.901Z,85.90
2018-01-15T04:18:58.501Z,85.90
2018-01-15T04:21:27.088Z,85.70
2018-01-15T04:23:54.698Z,85.70
2018-01-15T04:26:23.493Z,85.60
2018-01-15T04:28:51.026Z,85.60
2018-01-15T04:31:18.558Z,85.70
2018-01-15T04:33:46.079Z,85.30
2018-01-15T04:36:14.407Z,84.80
2018-01-15T04:38:41.924Z,84.80
2018-01-15T04:41:10.225Z,85.00
2018-01-15T04:43:38.517Z,85.10
2018-01-15T04:46:06.831Z,85.30
2018-01-15T04:48:35.131Z,85.40
2018-01-15T04:51:03.437Z,85.20
2018-01-15T04:53:31.726Z,85.40
2018-01-15T04:56:00.034Z,85.60
2018-01-15T04:58:28.326Z,85.70
2018-01-15T05:00:57.383Z,85.70
2018-01-15T05:03:24.910Z,85.60
2018-01-15T05:05:52.433Z,85.70
2018-01-15T05:08:19.977Z,85.70
2018-01-15T05:10:47.499Z,85.60
2018-01-15T05:13:15.044Z,85.50
2018-01-15T05:15:43.339Z,85.80
2018-01-15T05:18:11.666Z,86.10
2018-01-15T05:20:39.194Z,85.60
2018-01-15T05:23:06.736Z,85.50
2018-01-15T05:25:34.250Z,85.40
2018-01-15T05:28:01.815Z,85.60
2018-01-15T05:30:29.330Z,85.50
2018-01-15T05:32:56.879Z,85.60
2018-01-15T05:35:25.157Z,85.40
2018-01-15T05:37:52.692Z,85.50
2018-01-15T05:40:20.206Z,85.40
2018-01-15T05:42:47.846Z,85.30
2018-01-15T05:45:15.366Z,85.50
2018-01-15T05:47:42.904Z,85.40
2018-01-15T05:50:11.204Z,85.70
2018-01-15T05:52:39.507Z,85.60
2018-01-15T05:55:07.023Z,85.60
2018-01-15T05:57:34.568Z,85.50
2018-01-15T06:00:02.090Z,85.70
2018-01-15T06:02:29.630Z,85.90
2018-01-15T06:04:57.158Z,85.90
2018-01-15T06:07:24.693Z,85.70
2018-01-15T06:09:52.211Z,85.60
2018-01-15T06:12:20.513Z,85.50
2018-01-15T06:14:48.812Z,85.20
2018-01-15T06:17:16.345Z,85.10
2018-01-15T06:19:43.867Z,84.80
2018-01-15T06:22:11.412Z,84.80
2018-01-15T06:24:38.955Z,84.90
2018-01-15T06:27:06.476Z,85.00
2018-01-15T06:29:34.836Z,85.40
2018-01-15T06:32:02.369Z,85.40
2018-01-15T06:34:30.735Z,85.40
2018-01-15T06:36:58.253Z,85.30
2018-01-15T06:39:25.791Z,85.30
2018-01-15T06:41:53.317Z,84.90
2018-01-15T06:44:20.860Z,84.70
2018-01-15T06:46:48.378Z,84.80
2018-01-15T06:49:15.923Z,84.60
2018-01-15T06:51:43.502Z,84.70
2018-01-15T06:54:11.050Z,84.70
2018-01-15T06:56:38.573Z,84.70
2018-01-15T06:59:06.120Z,84.90
2018-01-15T07:01:33.646Z,85.00
2018-01-15T07:04:01.199Z,85.10
2018-01-15T07:06:28.729Z,85.20
2018-01-15T07:08:56.292Z,85.50
2018-01-15T07:11:24.596Z,85.60
2018-01-15T07:13:52.906Z,85.70
2018-01-15T07:16:20.427Z,85.70
2018-01-15T07:18:47.972Z,85.70
2018-01-15T07:21:16.262Z,85.80
2018-01-15T07:23:43.797Z,85.80
2018-01-15T07:26:11.319Z,85.60
2018-01-15T07:28:38.849Z,85.60
2018-01-15T07:31:06.369Z,85.70
2018-01-15T07:33:33.918Z,85.60
2018-01-15T07:36:01.442Z,85.50
2018-01-15T07:38:28.986Z,85.70
2018-01-15T07:40:58.042Z,84.50
2018-01-15T07:43:26.326Z,84.30
2018-01-15T07:45:54.630Z,84.40
2018-01-15T07:48:22.154Z,84.40
2018-01-15T07:50:50.290Z,84.30
2018-01-15T07:53:17.806Z,83.90
2018-01-15T07:55:46.115Z,84.00
2018-01-15T07:58:14.402Z,83.70
2018-01-15T08:00:41.941Z,83.60
2018-01-15T08:03:09.477Z,83.60
2018-01-15T08:05:37.788Z,83.60
2018-01-15T08:08:06.073Z,83.60
2018-01-15T08:10:33.702Z,83.60
2018-01-15T08:13:01.688Z,83.50
2018-01-15T08:15:29.235Z,83.80
2018-01-15T08:17:58.273Z,83.60
2018-01-15T08:20:25.815Z,83.60
2018-01-15T08:22:53.347Z,83.60
2018-01-15T08:25:21.660Z,83.10
2018-01-15T08:27:49.941Z,83.20
2018-01-15T08:30:17.476Z,83.20
2018-01-15T08:32:45.006Z,83.20
2018-01-15T08:35:12.545Z,83.00
2018-01-15T08:37:40.069Z,82.50
2018-01-15T08:40:07.612Z,82.00
2018-01-15T08:42:35.138Z,82.00
2018-01-15T08:45:02.686Z,81.70
2018-01-15T08:47:30.266Z,81.40
2018-01-15T08:49:57.801Z,81.20
2018-01-15T08:52:25.330Z,80.90
2018-01-15T08:54:53.633Z,80.60
2018-01-15T08:57:21.913Z,80.00
2018-01-15T08:59:49.431Z,80.00
2018-01-15T09:02:16.970Z,79.60
2018-01-15T09:04:44.503Z,78.90
2018-01-15T09:07:12.047Z,78.10
2018-01-15T09:09:39.566Z,77.60
2018-01-15T09:12:07.103Z,77.10
2018-01-15T09:14:34.627Z,76.40
2018-01-15T09:17:02.173Z,76.20
2018-01-15T09:19:29.731Z,76.30
2018-01-15T09:21:58.045Z,75.60
2018-01-15T09:24:26.342Z,75.60
2018-01-15T09:26:54.983Z,75.60
2018-01-15T09:29:22.572Z,75.50
2018-01-15T09:31:50.196Z,75.30
2018-01-15T09:34:17.727Z,75.40
2018-01-15T09:36:46.057Z,74.90
2018-01-15T09:39:13.588Z,74.80
2018-01-15T09:41:41.138Z,75.10
2018-01-15T09:44:08.663Z,74.90
2018-01-15T09:46:36.204Z,74.90
2018-01-15T09:49:03.725Z,75.10
2018-01-15T09:51:31.267Z,75.00
2018-01-15T09:53:59.570Z,74.90
2018-01-15T09:56:27.855Z,75.00
2018-01-15T09:58:55.496Z,75.00
2018-01-15T10:01:23.023Z,75.00
2018-01-15T10:03:50.567Z,74.90
2018-01-15T10:06:18.086Z,74.70
2018-01-15T10:08:45.634Z,75.00
2018-01-15T10:11:13.154Z,74.60
2018-01-15T10:13:40.678Z,74.70
2018-01-15T10:16:08.232Z,74.60
2018-01-15T10:18:35.750Z,74.50
2018-01-15T10:21:03.292Z,74.40
2018-01-15T10:23:31.599Z,74.30
2018-01-15T10:25:59.142Z,74.30
2018-01-15T10:28:27.426Z,74.30
2018-01-15T10:30:54.982Z,74.20
2018-01-15T10:33:22.498Z,74.60
2018-01-15T10:35:50.015Z,74.20
2018-01-15T10:38:17.602Z,73.80
2018-01-15T10:40:45.206Z,73.70
2018-01-15T10:43:12.750Z,73.90
2018-01-15T10:45:41.045Z,73.40
2018-01-15T10:48:08.579Z,73.40
2018-01-15T10:50:36.117Z,73.30
2018-01-15T10:53:03.657Z,73.20
2018-01-15T10:55:31.184Z,72.80
2018-01-15T10:57:59.509Z,72.50
2018-01-15T11:00:32.610Z,72.40
2018-01-15T11:03:00.149Z,72.60
2018-01-15T11:05:27.679Z,72.60
2018-01-15T11:07:55.228Z,71.80
2018-01-15T11:10:22.745Z,71.60
2018-01-15T11:12:50.284Z,71.70
2018-01-15T11:15:17.806Z,71.70
2018-01-15T11:17:45.357Z,71.60
2018-01-15T11:20:13.647Z,71.40
2018-01-15T11:22:41.950Z,71.40
2018-01-15T11:25:10.335Z,71.60
2018-01-15T11:27:37.898Z,71.60
2018-01-15T11:30:07.491Z,72.00
2018-01-15T11:32:35.932Z,72.70
2018-01-15T11:35:03.468Z,72.70
2018-01-15T11:37:32.411Z,73.00
2018-01-15T11:40:00.071Z,72.90
2018-01-15T11:42:27.600Z,73.00
2018-01-15T11:44:55.133Z,72.60
2018-01-15T11:47:23.368Z,72.80
2018-01-15T11:49:50.900Z,72.40
2018-01-15T11:52:19.106Z,72.20
2018-01-15T11:54:46.649Z,72.30
2018-01-15T11:57:14.352Z,71.70
2018-01-15T11:59:42.110Z,71.00
2018-01-15T12:02:09.805Z,71.20
2018-01-15T12:04:37.367Z,70.90
2018-01-15T12:07:07.494Z,70.50
2018-01-15T12:09:35.702Z,70.50
2018-01-15T12:12:03.313Z,70.40
2018-01-15T12:14:31.520Z,69.90
2018-01-15T12:16:59.130Z,70.30
2018-01-15T12:19:27.940Z,70.00
2018-01-15T12:21:55.469Z,70.00
2018-01-15T12:24:23.572Z,70.20
2018-01-15T12:26:51.189Z,70.10
2018-01-15T12:29:19.530Z,70.30
2018-01-15T12:31:47.076Z,70.30
2018-01-15T12:34:14.637Z,70.00
2018-01-15T12:36:43.262Z,70.20
2018-01-15T12:39:11.636Z,70.30
2018-01-15T12:41:39.150Z,69.80
2018-01-15T12:44:07.449Z,70.00
2018-01-15T12:46:34.960Z,70.00
2018-01-15T12:49:02.781Z,69.50
2018-01-15T12:51:30.303Z,69.40
2018-01-15T12:53:57.813Z,69.30
2018-01-15T12:56:25.353Z,69.50
2018-01-15T12:58:52.861Z,69.20
2018-01-15T13:01:20.385Z,69.00
2018-01-15T13:03:47.892Z,69.40
2018-01-15T13:06:20.207Z,69.60
2018-01-15T13:09:04.573Z,69.60
2018-01-15T13:11:34.321Z,70.10
2018-01-15T13:14:02.039Z,70.00
2018-01-15T13:16:30.445Z,70.10
2018-01-15T13:18:58.098Z,70.00
2018-01-15T13:21:26.156Z,69.70
2018-01-15T13:23:53.712Z,69.80
2018-01-15T13:26:22.155Z,70.10
2018-01-15T13:28:50.438Z,70.60
2018-01-15T13:31:19.796Z,70.60
2018-01-15T13:33:48.082Z,70.20
2018-01-15T13:36:15.617Z,70.20
2018-01-15T13:38:43.128Z,70.20
2018-01-15T13:41:10.685Z,69.90
2018-01-15T13:43:38.969Z,70.70
2018-01-15T13:46:06.509Z,70.70
2018-01-15T13:48:34.015Z,70.80
2018-01-15T13:51:05.714Z,70.50
2018-01-15T13:53:33.577Z,70.60
2018-01-15T13:56:02.282Z,70.70
2018-01-15T13:58:29.920Z,70.60
2018-01-15T14:00:57.444Z,70.80
2018-01-15T14:03:25.726Z,71.10
2018-01-15T14:05:54.020Z,71.50
2018-01-15T14:08:21.534Z,71.00
2018-01-15T14:10:49.070Z,71.30
2018-01-15T14:13:16.576Z,71.70
2018-01-15T14:15:45.734Z,71.60
2018-01-15T14:18:13.601Z,71.60
2018-01-15T14:20:41.198Z,71.50
2018-01-15T14:23:09.847Z,71.80
2018-01-15T14:25:37.571Z,71.80
2018-01-15T14:28:07.035Z,71.70
2018-01-15T14:30:35.322Z,71.80
2018-01-15T14:33:03.784Z,72.30
2018-01-15T14:35:31.374Z,72.40
2018-01-15T14:37:58.967Z,72.50
2018-01-15T14:40:27.047Z,72.80
2018-01-15T14:42:54.641Z,73.30
2018-01-15T14:45:22.408Z,74.40
2018-01-15T14:47:49.983Z,73.80
2018-01-15T14:50:18.465Z,73.90
2018-01-15T14:52:47.057Z,74.30
2018-01-15T14:55:14.714Z,74.30
2018-01-15T14:57:42.371Z,74.50
2018-01-15T15:00:10.958Z,74.70
2018-01-15T15:02:39.449Z,74.70
2018-01-15T15:05:06.986Z,74.70
2018-01-15T15:07:35.779Z,75.00
2018-01-15T15:10:03.319Z,74.90
2018-01-15T15:12:31.200Z,74.90
2018-01-15T15:14:59.090Z,74.90
2018-01-15T15:17:26.747Z,75.20
2018-01-15T15:19:55.060Z,75.50
2018-01-15T15:22:22.704Z,75.40
2018-01-15T15:24:50.287Z,75.40
2018-01-15T15:27:17.844Z,75.40
2018-01-15T15:29:46.172Z,75.40
2018-01-15T15:32:13.690Z,75.40
2018-01-15T15:34:41.438Z,75.40
2018-01-15T15:37:09.011Z,75.50
2018-01-15T15:39:37.307Z,75.20
2018-01-15T15:42:05.623Z,75.10
2018-01-15T15:44:33.150Z,75.10
2018-01-15T15:47:00.799Z,75.10
2018-01-15T15:49:28.322Z,75.20
2018-01-15T15:51:55.878Z,75.30
2018-01-15T15:54:23.409Z,75.10
2018-01-15T15:56:51.699Z,75.40
2018-01-15T15:59:19.245Z,74.90
2018-01-15T16:01:46.762Z,75.20
2018-01-15T16:04:15.019Z,75.00
2018-01-15T16:06:42.591Z,74.90
2018-01-15T16:09:11.070Z,75.10
2018-01-15T16:11:38.589Z,75.00
2018-01-15T16:14:06.111Z,75.10
2018-01-15T16:16:34.907Z,75.20
2018-01-15T16:19:02.445Z,75.20
2018-01-15T16:21:35.381Z,75.20
2018-01-15T16:24:03.675Z,75.00
2018-01-15T16:26:31.991Z,75.20
2018-01-15T16:28:59.515Z,75.20
2018-01-15T16:31:27.079Z,75.30
2018-01-15T16:33:54.604Z,75.20
2018-01-15T16:36:22.891Z,75.00
2018-01-15T16:38:51.298Z,75.00
2018-01-15T16:41:19.633Z,75.40
2018-01-15T16:43:47.224Z,75.40
2018-01-15T16:46:14.753Z,75.60
2018-01-15T16:48:42.298Z,75.60
2018-01-15T16:51:09.830Z,75.90
2018-01-15T16:53:37.355Z,75.90
2018-01-15T16:56:04.919Z,76.10
2018-01-15T16:58:32.448Z,75.80
2018-01-15T17:01:00.764Z,76.20
2018-01-15T17:03:28.295Z,76.30
2018-01-15T17:05:55.863Z,76.30
2018-01-15T17:08:23.383Z,76.40
2018-01-15T17:10:50.903Z,76.50
2018-01-15T17:13:18.446Z,76.80
2018-01-15T17:15:45.967Z,76.80
2018-01-15T17:18:13.550Z,76.80
2018-01-15T17:20:41.844Z,77.20
2018-01-15T17:23:10.176Z,77.10
2018-01-15T17:25:37.743Z,77.10
2018-01-15T17:28:06.026Z,77.00
2018-01-15T17:30:33.575Z,77.00
2018-01-15T17:33:01.103Z,77.10
2018-01-15T17:35:29.350Z,77.20
2018-01-15T17:37:57.639Z,77.10
2018-01-15T17:40:25.387Z,77.00
2018-01-15T17:42:52.906Z,76.90
2018-01-15T17:45:20.464Z,76.90
2018-01-15T17:47:48.006Z,76.90
2018-01-15T17:50:15.572Z,76.60
2018-01-15T17:52:43.114Z,76.70
2018-01-15T17:55:11.554Z,76.70
2018-01-15T17:57:39.108Z,76.20
2018-01-15T18:00:06.630Z,75.80
2018-01-15T18:02:34.173Z,75.00
2018-01-15T18:05:01.695Z,74.90
2018-01-15T18:07:29.260Z,75.20
2018-01-15T18:09:57.547Z,74.80
2018-01-15T18:12:25.843Z,74.60
2018-01-15T18:14:53.386Z,74.50
2018-01-15T18:17:20.909Z,74.60
2018-01-15T18:19:48.555Z,74.30
2018-01-15T18:22:16.075Z,74.00
2018-01-15T18:24:43.614Z,73.90
2018-01-15T18:27:11.202Z,73.70
2018-01-15T18:29:38.732Z,73.90
2018-01-15T18:32:06.282Z,73.90
2018-01-15T18:34:33.819Z,74.20
2018-01-15T18:37:01.363Z,73.80
2018-01-15T18:39:28.899Z,73.90
2018-01-15T18:41:57.311Z,75.60
2018-01-15T18:44:25.597Z,75.20
2018-01-15T18:46:53.113Z,75.10
2018-01-15T18:49:20.701Z,75.20
2018-01-15T18:51:48.966Z,77.10
2018-01-15T18:54:16.578Z,77.20
2018-01-15T18:56:44.108Z,77.40
2018-01-15T18:59:11.749Z,78.00
2018-01-15T19:01:39.268Z,78.90
2018-01-15T19:04:06.827Z,78.90
2018-01-15T19:06:34.347Z,79.80
2018-01-15T19:09:01.867Z,79.70
2018-01-15T19:11:30.952Z,80.90
2018-01-15T19:13:58.495Z,80.80
2018-01-15T19:16:26.043Z,81.00
2018-01-15T19:18:53.605Z,81.50
2018-01-15T19:21:21.152Z,82.40
2018-01-15T19:23:48.670Z,82.90
2018-01-15T19:26:16.225Z,83.30
2018-01-15T19:28:43.756Z,84.10
2018-01-15T19:31:11.494Z,84.00
2018-01-15T19:33:39.013Z,84.80
2018-01-15T19:39:14.525Z,86.00
2018-01-15T19:41:42.102Z,86.00
2018-01-15T19:44:16.169Z,87.20
2018-01-15T19:46:50.113Z,87.10
2018-01-15T19:49:23.302Z,87.10
2018-01-15T19:51:57.392Z,88.10
2018-01-15T19:54:30.559Z,87.60
2018-01-15T19:57:04.574Z,88.90
2018-01-15T19:59:37.957Z,88.50
2018-01-15T20:02:11.151Z,88.90
2018-01-15T20:04:44.444Z,89.20
2018-01-15T20:07:17.644Z,89.10
2018-01-15T20:09:50.859Z,89.60
2018-01-15T20:12:18.617Z,89.70
2018-01-15T20:14:46.148Z,90.00
2018-01-15T20:17:13.678Z,90.10
2018-01-15T20:19:41.265Z,90.50
2018-01-15T20:22:08.796Z,90.30
2018-01-15T20:24:36.393Z,90.30
2018-01-15T20:27:04.756Z,90.40
2018-01-15T20:29:32.500Z,90.40
2018-01-15T20:32:00.839Z,90.50
2018-01-15T20:34:28.408Z,90.50
2018-01-15T20:36:56.742Z,90.20
2018-01-15T20:39:25.598Z,90.40
2018-01-15T20:41:53.915Z,90.40
2018-01-15T20:44:22.249Z,90.70
2018-01-15T20:46:49.846Z,90.60
2018-01-15T20:49:17.375Z,90.70
2018-01-15T20:51:45.182Z,90.80
2018-01-15T20:54:13.481Z,90.70
2018-01-15T20:56:41.009Z,90.60
2018-01-15T20:59:09.370Z,90.70
2018-01-15T21:01:37.659Z,90.60
2018-01-15T21:04:05.263Z,90.60
2018-01-15T21:06:32.840Z,90.40
2018-01-15T21:09:00.437Z,90.50
2018-01-15T21:11:28.015Z,90.70
2018-01-15T21:13:55.785Z,90.90
2018-01-15T21:16:23.365Z,91.40
2018-01-15T21:18:50.936Z,91.20
2018-01-15T21:21:18.543Z,91.10
2018-01-15T21:23:46.100Z,90.80
2018-01-15T21:26:14.377Z,90.70
2018-01-15T21:28:41.903Z,90.80
2018-01-15T21:31:09.508Z,90.80
2018-01-15T21:33:37.043Z,90.50
2018-01-15T21:36:04.595Z,90.60
2018-01-15T21:38:32.178Z,90.40
2018-01-15T21:40:59.778Z,90.20
2018-01-15T21:43:27.371Z,90.30
2018-01-15T21:45:55.684Z,90.40
2018-01-15T21:48:23.240Z,90.40
2018-01-15T21:50:50.921Z,90.40
2018-01-15T21:53:18.489Z,90.40
2018-01-15T21:55:46.026Z,90.40
2018-01-15T21:58:13.743Z,90.40
2018-01-15T22:00:47.953Z,90.20
2018-01-15T22:03:16.263Z,90.40
2018-01-15T22:05:44.414Z,90.40
2018-01-15T22:08:11.935Z,90.40
2018-01-15T22:10:39.512Z,90.30
2018-01-15T22:13:07.030Z,90.20
2018-01-15T22:15:34.565Z,90.20
2018-01-15T22:18:02.110Z,90.10
2018-01-15T22:20:30.479Z,90.10
2018-01-15T22:22:58.764Z,89.50
2018-01-15T22:25:26.307Z,89.40
2018-01-15T22:27:53.826Z,89.30
2018-01-15T22:30:21.445Z,89.30
2018-01-15T22:32:49.006Z,88.80
2018-01-15T22:35:17.314Z,88.00
2018-01-15T22:37:44.825Z,88.00
2018-01-15T22:40:12.366Z,87.90
2018-01-15T22:42:39.891Z,87.80
2018-01-15T22:45:07.424Z,88.00
2018-01-15T22:47:34.942Z,87.90
2018-01-15T22:50:02.480Z,88.40
2018-01-15T22:52:31.652Z,89.00
2018-01-15T22:54:59.179Z,89.00
2018-01-15T22:57:26.688Z,89.10
2018-01-15T22:59:54.244Z,89.40
2018-01-15T23:02:21.750Z,90.10
2018-01-15T23:04:49.374Z,89.90
2018-01-15T23:07:16.898Z,89.90
2018-01-15T23:09:44.444Z,90.10
2018-01-15T23:12:11.983Z,90.00
2018-01-15T23:14:39.591Z,90.10
2018-01-15T23:17:07.913Z,90.30
2018-01-15T23:19:35.438Z,90.30
2018-01-15T23:22:02.976Z,90.00
2018-01-15T23:24:31.262Z,90.00
2018-01-15T23:26:59.621Z,90.00
2018-01-15T23:29:27.143Z,90.00
2018-01-15T23:31:54.704Z,90.60
2018-01-15T23:34:22.240Z,90.60
2018-01-15T23:36:49.792Z,90.90
2018-01-15T23:39:17.312Z,91.20
2018-01-15T23:41:44.897Z,91.40
2018-01-15T23:44:12.436Z,91.20
2018-01-15T23:46:41.496Z,91.50
2018-01-15T23:49:09.787Z,91.80
2018-01-15T23:51:38.110Z,91.40
2018-01-15T23:54:05.638Z,91.40
2018-01-15T23:56:33.266Z,91.40
2018-01-15T23:59:01.548Z,91.30
